createdAt,value
2023-05-05T00:00:25.196Z,286.02
2023-05-05T00:00:57.493Z,286.85
2023-05-05T00:01:29.884Z,281.00
2023-05-05T00:02:02.183Z,290.45
2023-05-05T00:02:34.526Z,303.40
2023-05-05T00:03:07.402Z,283.67
2023-05-05T00:03:40.626Z,276.17
2023-05-05T00:04:13.077Z,282.77
2023-05-05T00:04:45.430Z,281.55
2023-05-05T00:05:17.756Z,273.30
2023-05-05T00:05:50.615Z,278.67
2023-05-05T00:06:23.263Z,292.13
2023-05-05T00:06:55.542Z,309.27
2023-05-05T00:07:28.135Z,325.55
2023-05-05T00:08:00.562Z,301.37
2023-05-05T00:08:33.441Z,299.02
2023-05-05T00:09:06.222Z,258.02
2023-05-05T00:09:38.932Z,256.67
2023-05-05T00:10:11.298Z,258.17
2023-05-05T00:10:47.375Z,262.83
2023-05-05T00:11:19.894Z,273.67
2023-05-05T00:11:52.368Z,278.23
2023-05-05T00:12:24.707Z,280.15
2023-05-05T00:12:57.001Z,282.63
2023-05-05T00:13:29.337Z,287.80
2023-05-05T00:14:02.212Z,323.60
2023-05-05T00:14:34.660Z,312.13
2023-05-05T00:15:07.582Z,339.05
2023-05-05T00:15:42.273Z,303.77
2023-05-05T00:16:15.140Z,318.55
2023-05-05T00:16:47.589Z,324.48
2023-05-05T00:17:20.025Z,320.45
2023-05-05T00:17:52.532Z,288.25
2023-05-05T00:18:24.900Z,290.90
2023-05-05T00:18:57.696Z,272.20
2023-05-05T00:19:29.995Z,286.30
2023-05-05T00:20:02.381Z,319.20
2023-05-05T00:20:34.699Z,334.27
2023-05-05T00:21:07.000Z,306.83
2023-05-05T00:21:39.725Z,301.17
2023-05-05T00:22:12.178Z,307.63
2023-05-05T00:22:44.498Z,291.05
2023-05-05T00:23:17.107Z,285.35
2023-05-05T00:23:49.486Z,289.13
2023-05-05T00:24:22.136Z,278.80
2023-05-05T00:24:54.688Z,267.38
2023-05-05T00:25:27.044Z,258.38
2023-05-05T00:25:59.456Z,254.75
2023-05-05T00:26:31.984Z,252.68
2023-05-05T00:27:05.148Z,254.77
2023-05-05T00:27:39.480Z,260.77
2023-05-05T00:28:14.392Z,268.67
2023-05-05T00:28:47.972Z,268.20
2023-05-05T00:29:20.252Z,265.63
2023-05-05T00:29:52.696Z,259.63
2023-05-05T00:30:25.044Z,258.33
2023-05-05T00:30:57.582Z,267.00
2023-05-05T00:31:29.919Z,269.40
2023-05-05T00:32:02.128Z,265.45
2023-05-05T00:32:34.554Z,270.92
2023-05-05T00:33:07.376Z,279.17
2023-05-05T00:33:39.765Z,294.48
2023-05-05T00:34:12.310Z,285.73
2023-05-05T00:34:44.613Z,285.67
2023-05-05T00:35:17.722Z,298.53
2023-05-05T00:35:50.015Z,303.60
2023-05-05T00:36:22.354Z,307.85
2023-05-05T00:36:55.120Z,305.25
2023-05-05T00:37:28.418Z,294.73
2023-05-05T00:38:00.822Z,290.95
2023-05-05T00:38:34.068Z,289.52
2023-05-05T00:39:06.534Z,280.58
2023-05-05T00:39:38.876Z,281.92
2023-05-05T00:40:11.418Z,280.08
2023-05-05T00:40:43.825Z,279.03
2023-05-05T00:41:16.190Z,286.42
2023-05-05T00:41:48.560Z,276.85
2023-05-05T00:42:20.940Z,288.17
2023-05-05T00:42:53.728Z,291.50
2023-05-05T00:43:26.246Z,298.27
2023-05-05T00:43:58.995Z,319.02
2023-05-05T00:44:41.202Z,307.77
2023-05-05T00:45:14.704Z,300.80
2023-05-05T00:45:48.109Z,288.55
2023-05-05T00:46:25.430Z,275.17
2023-05-05T00:46:57.807Z,276.13
2023-05-05T00:47:30.234Z,276.42
2023-05-05T00:48:02.698Z,261.17
2023-05-05T00:48:35.467Z,254.27
2023-05-05T00:49:07.804Z,244.23
2023-05-05T00:49:40.333Z,248.82
2023-05-05T00:50:15.962Z,250.90
2023-05-05T00:50:48.678Z,248.50
2023-05-05T00:51:21.922Z,249.35
2023-05-05T00:51:54.177Z,250.70
2023-05-05T00:52:27.113Z,247.07
2023-05-05T00:53:01.043Z,230.38
2023-05-05T00:53:33.871Z,219.02
2023-05-05T00:54:06.240Z,211.82
2023-05-05T00:54:39.056Z,209.35
2023-05-05T00:55:11.432Z,205.23
2023-05-05T00:55:43.834Z,214.20
2023-05-05T00:56:17.336Z,219.82
2023-05-05T00:56:51.149Z,211.50
2023-05-05T00:57:24.910Z,213.23
2023-05-05T00:57:58.575Z,209.95
2023-05-05T00:58:31.151Z,211.73
2023-05-05T00:59:04.057Z,211.50
2023-05-05T00:59:37.078Z,208.45
2023-05-05T01:00:10.243Z,203.77
2023-05-05T01:00:42.715Z,205.43
2023-05-05T01:01:15.700Z,207.50
2023-05-05T01:01:48.100Z,203.48
2023-05-05T01:02:20.810Z,206.48
2023-05-05T01:02:53.318Z,208.47
2023-05-05T01:03:25.893Z,217.00
2023-05-05T01:03:58.323Z,210.48
2023-05-05T01:04:31.124Z,205.48
2023-05-05T01:05:03.945Z,198.23
2023-05-05T01:05:56.488Z,201.75
2023-05-05T01:06:47.231Z,225.77
2023-05-05T01:07:42.588Z,235.68
2023-05-05T01:08:27.029Z,245.45
2023-05-05T01:09:05.947Z,251.32
2023-05-05T01:09:58.085Z,262.47
2023-05-05T01:10:48.026Z,288.70
2023-05-05T01:11:31.289Z,279.77
2023-05-05T01:12:03.886Z,264.02
2023-05-05T01:12:52.040Z,261.23
2023-05-05T01:13:46.836Z,256.63
2023-05-05T01:14:25.331Z,263.98
2023-05-05T01:15:02.218Z,240.45
2023-05-05T01:15:36.289Z,233.13
2023-05-05T01:16:27.659Z,231.98
2023-05-05T01:17:05.085Z,242.80
2023-05-05T01:17:42.257Z,227.27
2023-05-05T01:18:19.828Z,223.80
2023-05-05T01:19:10.509Z,219.40
2023-05-05T01:19:48.945Z,234.75
2023-05-05T01:20:23.906Z,230.02
2023-05-05T01:20:56.525Z,226.73
2023-05-05T01:21:29.076Z,229.88
2023-05-05T01:22:03.370Z,221.25
2023-05-05T01:22:38.525Z,217.50
2023-05-05T01:23:13.775Z,205.40
2023-05-05T01:24:11.214Z,205.00
2023-05-05T01:24:54.618Z,224.05
2023-05-05T01:25:34.856Z,230.77
2023-05-05T01:26:12.950Z,228.15
2023-05-05T01:27:05.043Z,231.52
2023-05-05T01:27:56.351Z,241.98
2023-05-05T01:28:39.585Z,231.57
2023-05-05T01:29:14.657Z,232.02
2023-05-05T01:30:05.451Z,221.38
2023-05-05T01:30:43.657Z,227.87
2023-05-05T01:31:23.601Z,227.65
2023-05-05T01:31:59.908Z,222.60
2023-05-05T01:32:35.105Z,218.50
2023-05-05T01:33:09.462Z,213.23
2023-05-05T01:33:45.601Z,206.30
2023-05-05T01:34:21.058Z,206.85
2023-05-05T01:35:13.694Z,206.50
2023-05-05T01:35:47.757Z,224.82
2023-05-05T01:36:23.660Z,215.57
2023-05-05T01:36:58.566Z,216.73
2023-05-05T01:37:35.965Z,223.10
2023-05-05T01:38:12.552Z,215.30
2023-05-05T01:38:45.325Z,213.32
2023-05-05T01:39:18.700Z,212.52
2023-05-05T01:39:52.998Z,212.15
2023-05-05T01:40:26.949Z,211.90
2023-05-05T01:41:05.053Z,210.45
2023-05-05T01:41:42.004Z,212.02
2023-05-05T01:42:15.266Z,213.90
2023-05-05T01:42:48.627Z,212.03
2023-05-05T01:43:23.579Z,214.98
2023-05-05T01:43:57.268Z,214.77
2023-05-05T01:44:29.757Z,213.13
2023-05-05T01:45:03.766Z,208.57
2023-05-05T01:45:38.267Z,208.02
2023-05-05T01:46:11.574Z,209.43
2023-05-05T01:46:43.903Z,212.38
2023-05-05T01:47:18.725Z,211.80
2023-05-05T01:47:52.735Z,213.38
2023-05-05T01:48:26.204Z,211.77
2023-05-05T01:48:58.950Z,206.18
2023-05-05T01:49:31.824Z,205.75
2023-05-05T01:50:04.450Z,204.82
2023-05-05T01:50:37.195Z,205.85
2023-05-05T01:51:10.151Z,206.27
2023-05-05T01:51:42.854Z,206.82
2023-05-05T01:52:15.538Z,211.93
2023-05-05T01:52:47.930Z,202.40
2023-05-05T01:53:21.412Z,202.70
2023-05-05T01:53:57.267Z,206.23
2023-05-05T01:54:30.245Z,203.15
2023-05-05T01:55:03.146Z,205.35
2023-05-05T01:55:36.903Z,208.63
2023-05-05T01:56:09.819Z,206.10
2023-05-05T01:56:43.468Z,204.38
2023-05-05T01:57:16.789Z,204.75
2023-05-05T01:57:49.497Z,200.48
2023-05-05T01:58:22.364Z,198.93
2023-05-05T01:58:55.930Z,201.55
2023-05-05T01:59:29.705Z,206.80
2023-05-05T02:00:06.314Z,213.70
2023-05-05T02:00:47.324Z,228.43
2023-05-05T02:01:22.746Z,227.05
2023-05-05T02:01:56.684Z,228.65
2023-05-05T02:02:29.096Z,224.90
2023-05-05T02:03:04.234Z,221.35
2023-05-05T02:03:37.883Z,227.02
2023-05-05T02:04:10.399Z,223.63
2023-05-05T02:04:44.380Z,213.13
2023-05-05T02:05:19.629Z,215.20
2023-05-05T02:05:52.465Z,217.32
2023-05-05T02:06:25.670Z,218.02
2023-05-05T02:06:58.710Z,229.93
2023-05-05T02:07:32.779Z,215.55
2023-05-05T02:08:06.011Z,213.70
2023-05-05T02:08:39.542Z,212.20
2023-05-05T02:09:13.074Z,212.40
2023-05-05T02:09:46.417Z,204.73
2023-05-05T02:10:19.014Z,204.35
2023-05-05T02:10:52.638Z,197.97
2023-05-05T02:11:26.294Z,192.95
2023-05-05T02:11:58.983Z,189.90
2023-05-05T02:12:31.793Z,191.57
2023-05-05T02:13:04.519Z,184.48
2023-05-05T02:13:38.737Z,183.52
2023-05-05T02:14:11.523Z,183.00
2023-05-05T02:14:44.377Z,179.73
2023-05-05T02:15:18.812Z,181.57
2023-05-05T02:15:51.829Z,178.65
2023-05-05T02:16:24.835Z,181.67
2023-05-05T02:16:58.353Z,181.90
2023-05-05T02:17:31.142Z,187.13
2023-05-05T02:18:05.815Z,190.77
2023-05-05T02:18:39.063Z,194.50
2023-05-05T02:19:12.511Z,196.02
2023-05-05T02:19:45.927Z,193.10
2023-05-05T02:20:18.809Z,193.95
2023-05-05T02:20:51.090Z,187.90
2023-05-05T02:21:23.416Z,189.50
2023-05-05T02:21:55.672Z,195.73
2023-05-05T02:22:28.183Z,191.48
2023-05-05T02:23:00.566Z,191.40
2023-05-05T02:23:33.246Z,194.60
2023-05-05T02:24:05.818Z,193.73
2023-05-05T02:24:38.136Z,193.02
2023-05-05T02:25:10.624Z,189.02
2023-05-05T02:25:44.681Z,196.63
2023-05-05T02:26:19.459Z,203.82
2023-05-05T02:26:52.299Z,200.57
2023-05-05T02:27:25.032Z,199.80
2023-05-05T02:27:59.083Z,199.60
2023-05-05T02:28:51.624Z,191.38
2023-05-05T02:29:30.406Z,209.07
2023-05-05T02:30:04.963Z,200.02
2023-05-05T02:30:38.199Z,192.95
2023-05-05T02:31:11.057Z,189.75
2023-05-05T02:31:49.680Z,188.23
2023-05-05T02:32:32.052Z,192.57
2023-05-05T02:33:09.528Z,194.15
2023-05-05T02:33:43.325Z,193.00
2023-05-05T02:34:22.601Z,188.55
2023-05-05T02:34:55.619Z,192.05
2023-05-05T02:35:32.548Z,187.18
2023-05-05T02:36:25.548Z,189.00
2023-05-05T02:37:03.557Z,202.77
2023-05-05T02:37:39.565Z,197.10
2023-05-05T02:38:17.522Z,189.60
2023-05-05T02:38:54.672Z,191.10
2023-05-05T02:39:31.947Z,188.27
2023-05-05T02:40:08.768Z,193.80
2023-05-05T02:40:42.204Z,187.57
2023-05-05T02:41:17.953Z,189.02
2023-05-05T02:41:51.499Z,188.10
2023-05-05T02:42:34.143Z,192.20
2023-05-05T02:43:11.313Z,195.77
2023-05-05T02:43:45.219Z,195.30
2023-05-05T02:44:18.792Z,192.20
2023-05-05T02:44:51.959Z,193.00
2023-05-05T02:45:26.972Z,192.52
2023-05-05T02:45:59.242Z,191.87
2023-05-05T02:46:32.888Z,188.32
2023-05-05T02:47:05.461Z,191.40
2023-05-05T02:47:38.920Z,187.15
2023-05-05T02:48:13.222Z,188.55
2023-05-05T02:48:46.225Z,185.10
2023-05-05T02:49:18.625Z,186.20
2023-05-05T02:49:51.356Z,181.50
2023-05-05T02:50:23.624Z,186.55
2023-05-05T02:51:08.056Z,193.02
2023-05-05T02:51:42.604Z,191.63
2023-05-05T02:52:23.779Z,198.57
2023-05-05T02:52:56.046Z,192.38
2023-05-05T02:53:29.444Z,192.35
2023-05-05T02:54:01.970Z,193.52
2023-05-05T02:54:34.608Z,191.45
2023-05-05T02:55:11.178Z,193.85
2023-05-05T02:55:52.784Z,191.88
2023-05-05T02:56:28.789Z,203.68
2023-05-05T02:57:04.564Z,199.73
2023-05-05T02:57:45.316Z,197.77
2023-05-05T02:58:23.221Z,198.40
2023-05-05T02:59:10.207Z,203.65
2023-05-05T02:59:50.465Z,203.95
2023-05-05T03:00:45.862Z,207.05
2023-05-05T03:01:20.948Z,211.73
2023-05-05T03:01:53.350Z,207.85
2023-05-05T03:02:31.357Z,204.55
2023-05-05T03:03:07.043Z,201.10
2023-05-05T03:03:52.283Z,202.63
2023-05-05T03:04:32.144Z,208.63
2023-05-05T03:05:10.122Z,210.82
2023-05-05T03:05:54.033Z,213.52
2023-05-05T03:06:27.548Z,214.13
2023-05-05T03:07:02.735Z,206.32
2023-05-05T03:07:39.511Z,202.82
2023-05-05T03:08:17.530Z,209.00
2023-05-05T03:08:53.455Z,203.80
2023-05-05T03:09:33.201Z,204.38
2023-05-05T03:10:27.895Z,204.13
2023-05-05T03:11:05.117Z,217.00
2023-05-05T03:11:41.076Z,211.07
2023-05-05T03:12:19.291Z,207.68
2023-05-05T03:13:01.572Z,210.85
2023-05-05T03:13:45.305Z,215.15
2023-05-05T03:14:21.581Z,209.93
2023-05-05T03:14:58.724Z,207.18
2023-05-05T03:15:36.222Z,207.70
2023-05-05T03:16:09.424Z,205.05
2023-05-05T03:16:42.718Z,203.95
2023-05-05T03:17:17.582Z,198.83
2023-05-05T03:17:50.996Z,206.90
2023-05-05T03:18:24.339Z,204.85
2023-05-05T03:19:04.241Z,207.57
2023-05-05T03:19:37.849Z,205.27
2023-05-05T03:20:10.616Z,197.20
2023-05-05T03:20:46.319Z,202.73
2023-05-05T03:21:20.934Z,205.90
2023-05-05T03:21:53.569Z,205.00
2023-05-05T03:22:27.847Z,197.43
2023-05-05T03:23:01.546Z,203.33
2023-05-05T03:23:33.878Z,197.82
2023-05-05T03:24:13.617Z,198.20
2023-05-05T03:24:50.537Z,205.30
2023-05-05T03:25:41.544Z,204.77
2023-05-05T03:26:17.072Z,211.40
2023-05-05T03:26:50.090Z,205.85
2023-05-05T03:27:25.850Z,204.25
2023-05-05T03:27:58.204Z,196.90
2023-05-05T03:28:30.636Z,203.43
2023-05-05T03:29:07.050Z,196.13
2023-05-05T03:29:41.344Z,197.00
2023-05-05T03:30:20.355Z,198.73
2023-05-05T03:30:56.129Z,203.05
2023-05-05T03:31:28.749Z,199.25
2023-05-05T03:32:04.820Z,194.23
2023-05-05T03:32:37.687Z,192.98
2023-05-05T03:33:11.548Z,192.73
2023-05-05T03:33:45.917Z,197.27
2023-05-05T03:34:18.171Z,194.93
2023-05-05T03:34:53.150Z,195.87
2023-05-05T03:35:31.229Z,199.90
2023-05-05T03:36:03.760Z,197.98
2023-05-05T03:36:36.516Z,198.07
2023-05-05T03:37:08.885Z,198.95
2023-05-05T03:37:42.460Z,194.43
2023-05-05T03:38:15.901Z,191.60
2023-05-05T03:38:49.477Z,189.38
2023-05-05T03:39:22.758Z,193.32
2023-05-05T03:39:55.986Z,190.50
2023-05-05T03:40:40.262Z,196.17
2023-05-05T03:41:16.270Z,205.98
2023-05-05T03:41:48.534Z,201.25
2023-05-05T03:42:22.353Z,198.40
2023-05-05T03:42:54.796Z,194.07
2023-05-05T03:43:27.393Z,194.40
2023-05-05T03:43:59.834Z,189.77
2023-05-05T03:44:32.672Z,191.57
2023-05-05T03:45:05.272Z,188.27
2023-05-05T03:45:38.071Z,184.27
2023-05-05T03:46:10.833Z,189.13
2023-05-05T03:46:43.372Z,184.15
2023-05-05T03:47:18.385Z,183.10
2023-05-05T03:47:50.771Z,188.63
2023-05-05T03:48:23.099Z,194.88
2023-05-05T03:48:57.392Z,191.80
2023-05-05T03:49:30.871Z,194.52
2023-05-05T03:50:04.245Z,192.30
2023-05-05T03:50:36.886Z,195.98
2023-05-05T03:51:09.412Z,193.70
2023-05-05T03:51:41.982Z,191.33
2023-05-05T03:52:15.125Z,195.57
2023-05-05T03:52:48.855Z,198.82
2023-05-05T03:53:21.142Z,199.55
2023-05-05T03:53:54.105Z,199.35
2023-05-05T03:54:26.461Z,198.35
2023-05-05T03:55:00.340Z,198.48
2023-05-05T03:55:32.848Z,200.50
2023-05-05T03:56:05.424Z,197.60
2023-05-05T03:56:37.768Z,201.52
2023-05-05T03:57:10.076Z,198.77
2023-05-05T03:57:42.496Z,202.13
2023-05-05T03:58:14.764Z,201.50
2023-05-05T03:58:47.746Z,204.95
2023-05-05T03:59:20.105Z,204.02
2023-05-05T03:59:52.757Z,206.00
2023-05-05T04:00:25.097Z,206.50
2023-05-05T04:00:57.522Z,202.82
2023-05-05T04:01:31.601Z,218.48
2023-05-05T04:02:05.108Z,227.15
2023-05-05T04:02:37.739Z,230.10
2023-05-05T04:03:10.454Z,233.57
2023-05-05T04:03:43.405Z,230.48
2023-05-05T04:04:16.239Z,219.48
2023-05-05T04:04:48.563Z,227.70
2023-05-05T04:05:22.717Z,226.77
2023-05-05T04:05:55.298Z,217.25
2023-05-05T04:06:27.943Z,222.68
2023-05-05T04:07:00.280Z,217.88
2023-05-05T04:07:32.866Z,222.23
2023-05-05T04:08:05.273Z,218.73
2023-05-05T04:08:37.604Z,220.88
2023-05-05T04:09:12.292Z,219.88
2023-05-05T04:09:45.312Z,215.10
2023-05-05T04:10:18.112Z,222.70
2023-05-05T04:10:51.653Z,222.60
2023-05-05T04:11:24.002Z,221.68
2023-05-05T04:11:56.599Z,219.32
2023-05-05T04:12:28.888Z,210.93
2023-05-05T04:13:02.229Z,202.82
2023-05-05T04:13:36.101Z,205.00
2023-05-05T04:14:08.701Z,202.27
2023-05-05T04:14:41.076Z,202.30
2023-05-05T04:15:14.468Z,207.13
2023-05-05T04:15:47.073Z,207.75
2023-05-05T04:16:20.732Z,209.40
2023-05-05T04:16:53.046Z,214.98
2023-05-05T04:17:25.481Z,212.65
2023-05-05T04:17:58.090Z,209.25
2023-05-05T04:18:31.518Z,204.98
2023-05-05T04:19:04.297Z,203.70
2023-05-05T04:19:37.916Z,203.10
2023-05-05T04:20:11.125Z,212.70
2023-05-05T04:20:43.500Z,207.40
2023-05-05T04:21:16.316Z,210.90
2023-05-05T04:21:50.575Z,207.15
2023-05-05T04:22:22.903Z,205.52
2023-05-05T04:22:55.256Z,209.60
2023-05-05T04:23:28.362Z,211.25
2023-05-05T04:24:01.153Z,207.70
2023-05-05T04:24:33.467Z,206.53
2023-05-05T04:25:05.973Z,207.93
2023-05-05T04:25:38.874Z,212.52
2023-05-05T04:26:11.592Z,207.85
2023-05-05T04:26:43.865Z,203.73
2023-05-05T04:27:16.722Z,204.10
2023-05-05T04:27:49.170Z,212.35
2023-05-05T04:28:22.160Z,198.93
2023-05-05T04:28:55.921Z,201.23
2023-05-05T04:29:28.475Z,195.82
2023-05-05T04:30:01.524Z,192.73
2023-05-05T04:30:35.161Z,191.60
2023-05-05T04:31:07.956Z,189.20
2023-05-05T04:31:43.448Z,185.73
2023-05-05T04:32:15.969Z,184.40
2023-05-05T04:32:49.013Z,181.55
2023-05-05T04:33:21.519Z,179.60
2023-05-05T04:33:55.404Z,187.18
2023-05-05T04:34:27.918Z,192.07
2023-05-05T04:35:00.316Z,195.93
2023-05-05T04:35:32.709Z,188.33
2023-05-05T04:36:05.081Z,186.18
2023-05-05T04:36:37.898Z,188.95
2023-05-05T04:37:10.379Z,187.68
2023-05-05T04:37:42.691Z,195.82
2023-05-05T04:38:15.146Z,191.77
2023-05-05T04:38:47.628Z,192.35
2023-05-05T04:39:20.010Z,197.35
2023-05-05T04:39:52.490Z,197.10
2023-05-05T04:40:26.450Z,195.70
2023-05-05T04:41:00.184Z,202.10
2023-05-05T04:41:33.060Z,199.98
2023-05-05T04:42:05.476Z,199.32
2023-05-05T04:42:37.877Z,197.07
2023-05-05T04:43:10.162Z,198.55
2023-05-05T04:43:42.657Z,199.40
2023-05-05T04:44:15.081Z,198.02
2023-05-05T04:44:48.007Z,204.43
2023-05-05T04:45:20.836Z,200.93
2023-05-05T04:45:53.860Z,198.05
2023-05-05T04:46:28.073Z,198.70
2023-05-05T04:47:00.862Z,197.23
2023-05-05T04:47:36.900Z,200.35
2023-05-05T04:48:09.309Z,201.10
2023-05-05T04:48:42.178Z,199.35
2023-05-05T04:49:14.488Z,196.30
2023-05-05T04:49:48.305Z,198.40
2023-05-05T04:50:20.609Z,190.90
2023-05-05T04:50:53.229Z,193.00
2023-05-05T04:51:26.319Z,192.88
2023-05-05T04:51:58.795Z,191.60
2023-05-05T04:52:31.505Z,193.18
2023-05-05T04:53:03.939Z,194.15
2023-05-05T04:53:36.330Z,193.85
2023-05-05T04:54:08.810Z,192.50
2023-05-05T04:54:41.147Z,192.73
2023-05-05T04:55:13.606Z,190.45
2023-05-05T04:55:46.042Z,192.98
2023-05-05T04:56:18.292Z,201.07
2023-05-05T04:56:50.566Z,196.02
2023-05-05T04:57:22.898Z,197.83
2023-05-05T04:57:55.650Z,198.80
2023-05-05T04:58:29.495Z,201.20
2023-05-05T04:59:01.747Z,203.57
2023-05-05T04:59:34.934Z,202.77
2023-05-05T05:00:08.410Z,204.43
2023-05-05T05:00:40.955Z,200.45
2023-05-05T05:01:13.458Z,200.55
2023-05-05T05:01:45.899Z,200.07
2023-05-05T05:02:18.487Z,202.18
2023-05-05T05:02:50.965Z,209.40
2023-05-05T05:03:23.362Z,198.82
2023-05-05T05:03:56.090Z,198.73
2023-05-05T05:04:28.594Z,192.20
2023-05-05T05:05:00.839Z,192.73
2023-05-05T05:05:33.144Z,192.45
2023-05-05T05:06:05.477Z,198.98
2023-05-05T05:06:37.736Z,195.43
2023-05-05T05:07:10.032Z,200.85
2023-05-05T05:07:42.344Z,199.55
2023-05-05T05:08:17.908Z,195.90
2023-05-05T05:08:50.194Z,212.55
2023-05-05T05:09:22.474Z,215.70
2023-05-05T05:09:54.733Z,216.95
2023-05-05T05:10:27.166Z,202.40
2023-05-05T05:10:59.806Z,200.13
2023-05-05T05:11:32.680Z,196.55
2023-05-05T05:12:06.087Z,209.15
2023-05-05T05:12:38.420Z,213.13
2023-05-05T05:13:12.717Z,208.93
2023-05-05T05:13:46.464Z,220.00
2023-05-05T05:14:18.739Z,218.70
2023-05-05T05:14:51.983Z,221.68
2023-05-05T05:15:24.367Z,220.57
2023-05-05T05:15:56.905Z,219.82
2023-05-05T05:16:29.226Z,215.27
2023-05-05T05:17:01.708Z,222.00
2023-05-05T05:17:34.024Z,221.55
2023-05-05T05:18:07.152Z,229.00
2023-05-05T05:18:39.468Z,230.10
2023-05-05T05:19:11.897Z,220.67
2023-05-05T05:19:44.201Z,214.60
2023-05-05T05:20:16.582Z,209.20
2023-05-05T05:20:48.857Z,211.90
2023-05-05T05:21:21.516Z,210.55
2023-05-05T05:21:53.943Z,207.50
2023-05-05T05:22:26.355Z,208.15
2023-05-05T05:22:58.914Z,209.13
2023-05-05T05:23:31.221Z,211.70
2023-05-05T05:24:03.500Z,208.95
2023-05-05T05:24:36.535Z,208.90
2023-05-05T05:25:09.149Z,211.65
2023-05-05T05:25:42.425Z,210.43
2023-05-05T05:26:14.761Z,213.82
2023-05-05T05:26:47.028Z,212.30
2023-05-05T05:27:19.472Z,207.52
2023-05-05T05:28:06.151Z,212.40
2023-05-05T05:28:45.763Z,232.05
2023-05-05T05:29:19.085Z,228.52
2023-05-05T05:29:51.543Z,224.07
2023-05-05T05:30:24.038Z,221.40
2023-05-05T05:30:56.480Z,218.48
2023-05-05T05:31:29.175Z,216.77
2023-05-05T05:32:01.828Z,211.23
2023-05-05T05:32:34.810Z,206.48
2023-05-05T05:33:07.145Z,207.68
2023-05-05T05:33:39.508Z,214.27
2023-05-05T05:34:12.912Z,217.80
2023-05-05T05:34:46.437Z,208.77
2023-05-05T05:35:19.011Z,208.85
2023-05-05T05:35:52.823Z,213.70
2023-05-05T05:36:26.690Z,222.68
2023-05-05T05:36:58.959Z,219.07
2023-05-05T05:37:31.729Z,212.70
2023-05-05T05:38:04.819Z,214.55
2023-05-05T05:38:37.301Z,210.93
2023-05-05T05:39:10.854Z,214.48
2023-05-05T05:39:44.233Z,213.95
2023-05-05T05:40:17.638Z,214.38
2023-05-05T05:40:49.944Z,216.50
2023-05-05T05:41:22.204Z,218.03
2023-05-05T05:41:54.499Z,208.82
2023-05-05T05:42:26.774Z,211.77
2023-05-05T05:42:59.109Z,210.38
2023-05-05T05:43:32.748Z,208.23
2023-05-05T05:44:05.241Z,210.07
2023-05-05T05:44:37.564Z,210.60
2023-05-05T05:45:09.954Z,213.48
2023-05-05T05:45:42.713Z,221.82
2023-05-05T05:46:15.712Z,222.15
2023-05-05T05:46:48.500Z,219.63
2023-05-05T05:47:21.816Z,218.55
2023-05-05T05:47:55.097Z,203.93
2023-05-05T05:48:29.097Z,201.88
2023-05-05T05:49:02.382Z,209.10
2023-05-05T05:49:35.121Z,201.77
2023-05-05T05:50:08.085Z,199.68
2023-05-05T05:50:40.707Z,199.57
2023-05-05T05:51:12.963Z,200.00
2023-05-05T05:51:45.854Z,197.88
2023-05-05T05:52:18.150Z,193.90
2023-05-05T05:52:50.403Z,194.68
2023-05-05T05:53:22.760Z,187.30
2023-05-05T05:53:58.201Z,191.43
2023-05-05T05:54:32.896Z,191.32
2023-05-05T05:55:05.689Z,193.75
2023-05-05T05:55:37.949Z,190.98
2023-05-05T05:56:10.323Z,194.00
2023-05-05T05:56:43.537Z,193.88
2023-05-05T05:57:16.288Z,181.32
2023-05-05T05:57:48.524Z,176.73
2023-05-05T05:58:21.029Z,169.68
2023-05-05T05:58:53.419Z,170.85
2023-05-05T05:59:26.053Z,174.15
2023-05-05T06:00:00.467Z,170.95
2023-05-05T06:00:44.122Z,179.70
2023-05-05T06:01:17.525Z,175.38
2023-05-05T06:01:49.895Z,170.82
2023-05-05T06:02:22.220Z,170.23
2023-05-05T06:02:55.081Z,168.32
2023-05-05T06:03:31.184Z,171.37
2023-05-05T06:04:03.823Z,166.85
2023-05-05T06:04:36.501Z,170.05
2023-05-05T06:05:09.161Z,166.55
2023-05-05T06:05:41.906Z,166.00
2023-05-05T06:06:14.491Z,162.57
2023-05-05T06:06:46.848Z,163.93
2023-05-05T06:07:19.423Z,165.27
2023-05-05T06:07:52.444Z,161.88
2023-05-05T06:08:27.378Z,160.88
2023-05-05T06:09:02.300Z,163.73
2023-05-05T06:09:35.621Z,164.07
2023-05-05T06:10:25.639Z,161.98
2023-05-05T06:11:03.406Z,179.90
2023-05-05T06:11:37.238Z,175.00
2023-05-05T06:12:09.868Z,180.27
2023-05-05T06:12:42.263Z,174.93
2023-05-05T06:13:14.596Z,171.93
2023-05-05T06:13:50.564Z,169.00
2023-05-05T06:14:22.904Z,170.95
2023-05-05T06:14:55.498Z,170.30
2023-05-05T06:15:28.225Z,181.57
2023-05-05T06:16:00.963Z,178.07
2023-05-05T06:16:33.731Z,181.65
2023-05-05T06:17:09.978Z,176.73
2023-05-05T06:17:42.289Z,175.85
2023-05-05T06:18:14.846Z,178.82
2023-05-05T06:18:47.304Z,178.15
2023-05-05T06:19:20.208Z,178.15
2023-05-05T06:19:54.431Z,172.98
2023-05-05T06:20:27.017Z,175.47
2023-05-05T06:21:00.479Z,174.65
2023-05-05T06:21:34.035Z,177.88
2023-05-05T06:22:06.463Z,176.70
2023-05-05T06:22:39.645Z,180.30
2023-05-05T06:23:12.034Z,189.73
2023-05-05T06:23:48.734Z,196.35
2023-05-05T06:24:21.433Z,190.30
2023-05-05T06:24:53.744Z,189.85
2023-05-05T06:25:26.548Z,188.35
2023-05-05T06:25:58.792Z,191.47
2023-05-05T06:26:31.667Z,182.30
2023-05-05T06:27:03.986Z,179.27
2023-05-05T06:27:36.477Z,178.48
2023-05-05T06:28:08.808Z,175.05
2023-05-05T06:28:42.158Z,175.63
2023-05-05T06:29:14.860Z,178.52
2023-05-05T06:29:47.169Z,175.65
2023-05-05T06:30:19.580Z,173.93
2023-05-05T06:30:52.050Z,170.93
2023-05-05T06:31:24.446Z,172.30
2023-05-05T06:31:56.996Z,169.43
2023-05-05T06:32:29.525Z,170.07
2023-05-05T06:33:01.936Z,169.05
2023-05-05T06:33:34.425Z,169.27
2023-05-05T06:34:06.722Z,164.15
2023-05-05T06:34:38.956Z,164.73
2023-05-05T06:35:11.304Z,163.82
2023-05-05T06:35:43.645Z,165.18
2023-05-05T06:36:16.051Z,163.38
2023-05-05T06:36:48.495Z,164.80
2023-05-05T06:37:20.766Z,161.35
2023-05-05T06:37:53.027Z,158.43
2023-05-05T06:38:25.423Z,159.77
2023-05-05T06:38:57.688Z,160.63
2023-05-05T06:39:29.947Z,158.00
2023-05-05T06:40:02.279Z,157.45
2023-05-05T06:40:35.622Z,162.27
2023-05-05T06:41:08.113Z,163.10
2023-05-05T06:41:40.379Z,160.98
2023-05-05T06:42:12.654Z,157.43
2023-05-05T06:42:44.920Z,158.07
2023-05-05T06:43:22.324Z,162.80
2023-05-05T06:43:59.895Z,166.10
2023-05-05T06:44:33.392Z,161.15
2023-05-05T06:45:05.880Z,154.88
2023-05-05T06:45:38.142Z,156.57
2023-05-05T06:46:10.377Z,155.85
2023-05-05T06:46:43.879Z,156.73
2023-05-05T06:47:16.497Z,155.13
2023-05-05T06:47:49.668Z,152.40
2023-05-05T06:48:22.381Z,159.70
2023-05-05T06:48:54.769Z,156.63
2023-05-05T06:49:27.179Z,155.65
2023-05-05T06:49:59.401Z,154.10
2023-05-05T06:50:31.838Z,155.05
2023-05-05T06:51:04.125Z,152.40
2023-05-05T06:51:36.365Z,156.68
2023-05-05T06:52:08.680Z,155.45
2023-05-05T06:52:41.430Z,158.38
2023-05-05T06:53:13.848Z,155.07
2023-05-05T06:53:46.151Z,158.40
2023-05-05T06:54:18.391Z,156.30
2023-05-05T06:54:50.979Z,158.05
2023-05-05T06:55:23.797Z,158.68
2023-05-05T06:55:56.096Z,154.55
2023-05-05T06:56:28.381Z,159.73
2023-05-05T06:57:00.620Z,154.63
2023-05-05T06:57:33.008Z,151.43
2023-05-05T06:58:05.399Z,149.07
2023-05-05T06:58:37.710Z,147.83
2023-05-05T06:59:09.935Z,147.07
2023-05-05T06:59:42.197Z,148.13
2023-05-05T07:00:15.298Z,150.32
2023-05-05T07:00:47.892Z,148.52
2023-05-05T07:01:20.225Z,146.85
2023-05-05T07:01:52.626Z,151.40
2023-05-05T07:02:26.787Z,150.75
2023-05-05T07:02:59.448Z,158.05
2023-05-05T07:03:31.944Z,149.88
2023-05-05T07:04:04.429Z,152.37
2023-05-05T07:04:37.371Z,153.18
2023-05-05T07:05:09.707Z,153.23
2023-05-05T07:05:42.396Z,153.43
2023-05-05T07:06:14.641Z,153.60